Time;durP1;ratioP1;P1;durP2;ratioP2;P2;SDS_P1;SDS_P2;PMS_P1;PMS_P2;Temp;Humidity;BMP_temperature;BMP_pressure;BME280_temperature;BME280_humidity;BME280_pressure;Samples;Min_cycle;Max_cycle;Signal;HPM_P1;HPM_P2
2022/10/21 00:01:02;;;;;;;6.50;2.00;;;;;;;25.09;42.50;99887.19;4994076;28;20026;-56
2022/10/21 00:03:31;;;;;;;6.45;2.08;;;;;;;25.09;42.54;99895.94;4993742;28;20133;-57
2022/10/21 00:05:59;;;;;;;7.47;1.70;;;;;;;25.11;42.23;99888.91;4994056;28;20030;-56
2022/10/21 00:08:28;;;;;;;6.43;1.88;;;;;;;25.12;42.06;99892.44;4993673;28;20030;-57
2022/10/21 00:10:58;;;;;;;5.78;1.80;;;;;;;25.09;42.25;99897.69;4993805;28;20029;-57
2022/10/21 00:13:28;;;;;;;7.07;1.67;;;;;;;25.11;42.06;99898.56;4993737;28;20037;-56
2022/10/21 00:16:01;;;;;;;6.28;2.20;;;;;;;25.11;42.45;99888.06;4993747;28;20034;-54
2022/10/21 00:18:30;;;;;;;7.00;2.10;;;;;;;25.12;42.18;99890.66;4993824;28;20022;-57
2022/10/21 00:20:59;;;;;;;8.30;2.72;;;;;;;25.09;41.98;99893.31;4993692;28;20157;-55
2022/10/21 00:23:28;;;;;;;9.23;2.72;;;;;;;25.11;41.93;99894.16;4993352;28;20034;-57
2022/10/21 00:25:58;;;;;;;7.70;1.90;;;;;;;25.16;42.01;99886.25;4993832;28;20034;-56
2022/10/21 00:28:26;;;;;;;9.77;2.20;;;;;;;25.10;41.98;99878.44;4976312;28;20125;-56
2022/10/21 00:30:55;;;;;;;8.80;2.22;;;;;;;25.10;42.07;99886.31;4993545;28;20027;-55
2022/10/21 00:33:25;;;;;;;8.18;2.25;;;;;;;25.10;42.14;99881.94;4976468;28;20032;-56
2022/10/21 00:35:56;;;;;;;8.15;2.75;;;;;;;25.09;42.06;99882.81;4993423;28;20088;-57
2022/10/21 00:38:25;;;;;;;11.50;2.92;;;;;;;25.08;41.88;99881.06;4993648;28;20027;-57
2022/10/21 00:40:54;;;;;;;9.95;2.65;;;;;;;25.05;41.77;99874.97;4993684;28;20054;-57
2022/10/21 00:43:22;;;;;;;9.32;2.80;;;;;;;25.09;41.94;99876.69;4993177;28;20118;-56
2022/10/21 00:45:54;;;;;;;8.50;2.58;;;;;;;25.06;41.84;99881.97;4993515;28;20038;-54
2022/10/21 00:48:44;;;;;;;6.75;2.25;;;;;;;25.10;41.75;99878.44;4976388;28;20050;-54
2022/10/21 00:51:16;;;;;;;8.10;2.60;;;;;;;25.08;41.93;99872.34;4993352;28;20038;-56
2022/10/21 00:53:47;;;;;;;12.27;3.30;;;;;;;25.10;42.08;99866.19;4993350;28;20113;-56
2022/10/21 00:56:23;;;;;;;11.45;3.05;;;;;;;25.07;42.04;99862.72;4996323;28;20030;-57
2022/10/21 00:58:52;;;;;;;10.60;2.47;;;;;;;25.03;41.87;99861.88;4997336;28;20030;-57
2022/10/21 01:01:21;;;;;;;9.88;3.05;;;;;;;25.00;42.22;99857.53;4980050;28;20073;-57
2022/10/21 01:03:50;;;;;;;12.15;3.13;;;;;;;24.89;42.00;99838.38;4997273;28;20510;-57
2022/10/21 01:06:23;;;;;;;11.93;3.25;;;;;;;24.99;41.80;99860.16;4997388;28;20060;-56
2022/10/21 01:08:53;;;;;;;9.70;2.83;;;;;;;25.00;41.86;99860.13;4997230;28;20033;-56
2022/10/21 01:11:22;;;;;;;8.93;2.55;;;;;;;25.01;41.88;99858.41;5011865;28;20399;-57
2022/10/21 01:14:29;;;;;;;9.23;2.80;;;;;;;24.98;42.21;99856.69;4997261;28;20039;-58
2022/10/21 01:17:03;;;;;;;10.18;2.75;;;;;;;25.01;41.83;99851.38;4980460;28;20372;-56
2022/10/21 01:19:58;;;;;;;8.48;2.83;;;;;;;24.98;41.97;99859.31;5012104;28;20031;-55
2022/10/21 01:23:01;;;;;;;11.57;3.28;;;;;;;24.98;41.82;99851.44;4996363;28;20049;-54
2022/10/21 01:25:50;;;;;;;14.40;4.00;;;;;;;24.99;42.02;99850.53;4990084;28;20062;-57
2022/10/21 01:28:47;;;;;;;9.48;3.22;;;;;;;24.99;41.94;99850.53;4996468;28;20030;-57
2022/10/21 01:31:40;;;;;;;12.38;3.38;;;;;;;25.01;41.92;99854.00;4996558;28;20037;-58
2022/10/21 01:34:30;;;;;;;13.35;3.70;;;;;;;25.00;41.95;99843.53;4979769;28;20030;-58
2022/10/21 01:37:25;;;;;;;10.45;2.80;;;;;;;24.98;42.28;99854.06;4995746;28;20490;-57
2022/10/21 01:39:57;;;;;;;12.00;3.13;;;;;;;24.99;42.21;99845.28;4996850;28;20034;-58
2022/10/21 01:42:31;;;;;;;13.50;4.05;;;;;;;24.95;41.81;99830.47;4979225;28;20030;-58
2022/10/21 01:45:05;;;;;;;9.85;2.80;;;;;;;24.93;42.26;99839.22;4963328;28;20060;-58
2022/10/21 01:47:36;;;;;;;10.82;3.80;;;;;;;24.97;42.23;99838.31;5011337;28;20052;-58
2022/10/21 01:50:12;;;;;;;11.48;3.30;;;;;;;25.00;41.79;99831.28;4979642;28;20054;-56
2022/10/21 01:52:42;;;;;;;15.80;3.35;;;;;;;24.99;41.70;99828.69;4979173;28;20034;-58
2022/10/21 01:55:15;;;;;;;12.75;3.38;;;;;;;24.96;41.99;99826.09;5011329;28;20565;-58
2022/10/21 01:57:49;;;;;;;15.05;2.97;;;;;;;24.92;42.30;99822.63;5011455;28;20058;-53
2022/10/21 02:00:18;;;;;;;14.32;3.40;;;;;;;24.91;41.79;99826.13;4979022;28;20526;-55
2022/10/21 02:02:48;;;;;;;11.85;3.63;;;;;;;24.96;42.28;99818.22;4995921;28;20050;-57
2022/10/21 02:05:20;;;;;;;12.57;3.47;;;;;;;24.97;42.22;99812.97;4996082;28;20558;-56
2022/10/21 02:07:49;;;;;;;12.32;4.30;;;;;;;24.95;42.26;99808.59;4995547;28;20026;-56
2022/10/21 02:10:19;;;;;;;11.40;3.42;;;;;;;24.96;41.77;99811.22;4995992;28;20022;-57
2022/10/21 02:12:49;;;;;;;14.00;3.83;;;;;;;24.91;42.17;99804.25;4978795;28;20034;-57
2022/10/21 02:15:18;;;;;;;17.42;4.05;;;;;;;24.89;42.27;99809.53;5010865;28;20476;-57
2022/10/21 02:17:55;;;;;;;14.15;3.58;;;;;;;24.83;42.51;99799.09;4978584;28;20057;-56
2022/10/21 02:20:26;;;;;;;13.15;3.92;;;;;;;24.87;42.00;99806.06;4995851;28;20061;-56
2022/10/21 02:22:54;;;;;;;10.10;3.05;;;;;;;24.91;42.17;99814.75;4995881;28;20042;-55
2022/10/21 02:25:27;;;;;;;10.48;3.45;;;;;;;24.94;41.92;99806.84;4995924;28;20109;-57
2022/10/21 02:27:57;;;;;;;9.80;3.28;;;;;;;24.87;42.24;99800.81;4995443;28;20034;-57
2022/10/21 02:30:24;;;;;;;12.63;3.38;;;;;;;24.88;42.25;99786.81;4978422;28;20152;-51
2022/10/21 02:33:01;;;;;;;12.57;4.03;;;;;;;24.87;41.71;99795.56;4995520;28;20089;-57
2022/10/21 02:35:53;;;;;;;12.73;3.78;;;;;;;24.85;42.33;99797.31;4995480;28;20027;-57
2022/10/21 02:38:37;;;;;;;14.15;3.80;;;;;;;24.82;42.36;99797.38;4995116;28;20392;-57
2022/10/21 02:41:09;;;;;;;14.38;3.60;;;;;;;24.82;42.27;99795.59;5010300;28;20034;-56
2022/10/21 02:43:43;;;;;;;13.95;3.83;;;;;;;24.86;42.31;99799.06;4995132;28;20030;-57
2022/10/21 02:46:14;;;;;;;14.57;4.32;;;;;;;24.83;42.30;99799.09;4995504;28;20064;-56
2022/10/21 02:48:45;;;;;;;12.80;3.53;;;;;;;24.82;42.39;99805.25;4978235;28;20438;-57
2022/10/21 02:51:15;;;;;;;12.80;4.00;;;;;;;24.81;42.30;99800.88;4995433;28;20030;-56
2022/10/21 02:53:44;;;;;;;16.95;3.97;;;;;;;24.83;42.54;99814.81;4995503;28;20113;-55
2022/10/21 02:56:12;;;;;;;17.40;4.88;;;;;;;24.80;42.57;99809.63;4994886;28;20108;-57
2022/10/21 02:58:41;;;;;;;14.82;4.28;;;;;;;24.83;42.27;99814.81;4995247;28;20529;-58
2022/10/21 03:01:09;;;;;;;15.77;4.90;;;;;;;24.81;42.44;99804.34;4995025;28;20057;-57
2022/10/21 03:03:38;;;;;;;13.70;4.03;;;;;;;24.83;42.29;99813.09;4995016;28;20043;-58
2022/10/21 03:06:07;;;;;;;15.98;4.30;;;;;;;24.85;42.56;99815.69;4995060;28;20109;-53
2022/10/21 03:08:35;;;;;;;14.80;4.15;;;;;;;24.75;42.86;99816.66;4994686;28;20080;-55
2022/10/21 03:11:04;;;;;;;18.67;4.55;;;;;;;24.72;42.70;99813.16;4977708;28;20088;-57
2022/10/21 03:13:32;;;;;;;14.20;4.13;;;;;;;24.77;42.38;99821.00;4994959;28;20034;-55
2022/10/21 03:16:01;;;;;;;16.08;4.40;;;;;;;24.81;42.44;99821.84;4994875;28;20030;-58
2022/10/21 03:18:30;;;;;;;15.13;4.78;;;;;;;24.77;42.79;99804.41;4976839;28;20052;-58
2022/10/21 03:24:39;;;;;;;13.82;4.30;;;;;;;24.73;42.69;99801.81;4995418;28;20439;-54
2022/10/21 03:27:08;;;;;;;16.20;4.90;;;;;;;24.68;42.88;99793.06;5012471;28;20038;-57
2022/10/21 03:29:36;;;;;;;18.05;4.65;;;;;;;24.79;42.82;99805.25;5014466;28;20076;-56
2022/10/21 03:32:05;;;;;;;17.38;5.18;;;;;;;24.75;42.73;99801.78;5014100;28;20026;-58
2022/10/21 03:34:34;;;;;;;17.70;4.65;;;;;;;24.80;42.44;99802.63;5014282;28;20374;-57
2022/10/21 03:37:02;;;;;;;14.93;4.78;;;;;;;24.76;42.48;99800.03;5014197;28;20111;-58
2022/10/21 03:39:31;;;;;;;14.50;4.30;;;;;;;24.80;42.63;99801.75;5013883;28;20049;-58
2022/10/21 03:42:00;;;;;;;16.30;4.60;;;;;;;24.78;42.32;99791.25;5014196;28;20026;-57
2022/10/21 03:44:28;;;;;;;15.55;4.95;;;;;;;24.72;42.49;99786.94;5014020;28;20026;-58
2022/10/21 03:46:57;;;;;;;16.95;5.18;;;;;;;24.80;42.62;99796.50;5013583;28;20483;-56
2022/10/21 03:49:25;;;;;;;14.43;4.60;;;;;;;24.75;42.49;99782.56;5013825;28;20497;-58
2022/10/21 03:51:54;;;;;;;15.18;4.72;;;;;;;24.77;42.44;99788.66;4996794;28;20053;-58
2022/10/21 03:54:23;;;;;;;21.60;5.57;;;;;;;24.69;42.67;99781.69;5013687;28;20061;-57
2022/10/21 03:56:51;;;;;;;18.02;5.32;;;;;;;24.77;42.56;99786.91;4995990;28;20099;-58
2022/10/21 03:59:20;;;;;;;17.02;5.05;;;;;;;24.75;42.63;99780.78;5014314;28;20133;-51
2022/10/21 04:01:48;;;;;;;16.00;5.07;;;;;;;24.72;42.65;99788.72;5013206;28;20037;-56
2022/10/21 04:04:17;;;;;;;20.95;5.93;;;;;;;24.70;42.83;99787.84;5013635;28;20172;-56
2022/10/21 04:06:46;;;;;;;17.70;4.68;;;;;;;24.64;42.79;99786.13;5013269;28;20025;-57
2022/10/21 04:09:14;;;;;;;17.92;5.47;;;;;;;24.68;42.65;99790.44;5013759;28;20030;-57
2022/10/21 04:11:43;;;;;;;16.50;5.13;;;;;;;24.74;42.74;99794.78;5013599;28;20033;-56
2022/10/21 04:14:11;;;;;;;15.88;4.65;;;;;;;24.73;42.64;99788.69;5013127;28;20037;-56
2022/10/21 04:16:40;;;;;;;16.23;5.15;;;;;;;24.70;42.70;99785.22;5013115;28;20034;-57
2022/10/21 04:19:08;;;;;;;19.98;5.75;;;;;;;24.69;42.54;99789.56;5013382;28;20038;-57
2022/10/21 04:21:37;;;;;;;22.38;6.03;;;;;;;24.64;43.15;99788.75;5013297;28;20041;-57
2022/10/21 04:24:06;;;;;;;19.35;5.00;;;;;;;24.72;42.93;99789.56;5013457;28;20479;-57
2022/10/21 04:26:34;;;;;;;19.95;5.20;;;;;;;24.69;42.87;99794.81;5013170;28;20029;-57
2022/10/21 04:29:03;;;;;;;18.05;5.22;;;;;;;24.72;42.87;99791.34;5013303;28;20022;-57
2022/10/21 04:31:31;;;;;;;19.73;5.68;;;;;;;24.67;42.62;99785.22;5013112;28;20034;-56
2022/10/21 04:34:00;;;;;;;16.92;5.93;;;;;;;24.66;43.10;99801.84;5013292;28;20026;-55
2022/10/21 04:36:28;;;;;;;21.73;6.70;;;;;;;24.64;43.04;99806.22;5013071;28;20034;-57
2022/10/21 04:38:57;;;;;;;18.60;5.25;;;;;;;24.63;43.06;99812.34;5012950;28;20029;-58
2022/10/21 04:41:25;;;;;;;18.08;5.13;;;;;;;24.54;43.26;99808.94;5013338;28;20032;-56
2022/10/21 04:43:54;;;;;;;16.92;5.47;;;;;;;24.60;43.27;99817.59;4995975;28;20026;-57
2022/10/21 04:46:21;;;;;;;17.85;4.80;;;;;;;24.58;43.24;99815.00;5013084;28;20382;-57
2022/10/21 04:48:50;;;;;;;21.88;5.78;;;;;;;24.64;43.04;99806.22;5012852;28;20033;-56
2022/10/21 04:51:19;;;;;;;22.83;6.15;;;;;;;24.60;42.85;99814.97;5012755;28;20044;-57
2022/10/21 04:53:47;;;;;;;19.05;4.95;;;;;;;24.59;42.69;99816.75;5013033;28;20026;-57
2022/10/21 04:56:16;;;;;;;25.17;6.88;;;;;;;24.60;43.04;99809.75;5013023;28;20415;-57
2022/10/21 04:58:44;;;;;;;21.92;6.05;;;;;;;24.57;43.34;99811.50;5012768;28;20034;-57
2022/10/21 05:01:13;;;;;;;23.98;6.38;;;;;;;24.59;43.22;99811.50;5012748;28;20048;-55
2022/10/21 05:03:41;;;;;;;21.67;5.57;;;;;;;24.58;42.88;99808.00;4994944;28;20057;-58
2022/10/21 05:06:10;;;;;;;17.55;6.10;;;;;;;24.53;43.26;99811.53;5012704;28;20058;-57
2022/10/21 05:08:38;;;;;;;16.65;5.30;;;;;;;24.59;43.19;99811.50;5012713;28;20463;-56
2022/10/21 05:11:07;;;;;;;20.95;6.00;;;;;;;24.58;43.28;99820.25;5012820;28;20042;-57
2022/10/21 05:13:35;;;;;;;23.15;6.35;;;;;;;24.57;43.31;99816.75;5012905;28;20066;-57
2022/10/21 05:16:05;;;;;;;18.33;6.13;;;;;;;24.56;42.94;99816.78;5012827;28;20124;-57
2022/10/21 05:18:33;;;;;;;19.60;6.38;;;;;;;24.52;43.20;99818.56;5012627;28;20041;-56
2022/10/21 05:21:02;;;;;;;18.77;6.38;;;;;;;24.55;43.19;99833.38;5013029;28;20091;-56
2022/10/21 05:23:30;;;;;;;20.95;6.50;;;;;;;24.55;43.30;99836.00;5012903;28;20033;-51
2022/10/21 05:25:58;;;;;;;22.75;6.35;;;;;;;24.50;43.15;99824.66;5012722;28;20026;-57
2022/10/21 05:28:26;;;;;;;20.20;6.35;;;;;;;24.56;43.12;99829.88;5012723;28;20030;-58
2022/10/21 05:30:55;;;;;;;18.55;5.72;;;;;;;24.52;43.28;99830.78;5012564;28;20105;-54
2022/10/21 05:33:23;;;;;;;20.25;5.90;;;;;;;24.58;43.19;99843.84;5012529;28;20052;-57
2022/10/21 05:36:05;;;;;;;19.42;6.00;;;;;;;24.53;43.46;99843.88;5012496;28;20041;-57
2022/10/21 05:38:34;;;;;;;21.85;6.25;;;;;;;24.58;43.21;99843.84;5012610;28;20471;-57
2022/10/21 05:41:01;;;;;;;21.35;6.20;;;;;;;24.53;43.22;99837.75;5012764;28;20022;-58
2022/10/21 05:43:30;;;;;;;22.65;6.32;;;;;;;24.52;43.02;99841.25;5015755;28;20491;-57
2022/10/21 05:45:58;;;;;;;18.25;5.70;;;;;;;24.56;42.99;99840.38;5015909;28;20033;-57
2022/10/21 05:48:27;;;;;;;21.67;6.07;;;;;;;24.54;43.21;99852.59;4998826;28;20030;-57
2022/10/21 05:50:56;;;;;;;16.90;5.53;;;;;;;24.58;43.17;99854.34;5015781;28;20113;-58
2022/10/21 05:53:25;;;;;;;22.00;6.32;;;;;;;24.55;42.98;99847.38;5015924;28;20022;-58
2022/10/21 05:56:05;;;;;;;22.42;6.10;;;;;;;24.52;43.04;99857.88;5015728;28;20048;-55
2022/10/21 05:58:34;;;;;;;20.73;5.95;;;;;;;24.61;42.89;99851.69;5016055;28;20022;-57
2022/10/21 06:01:03;;;;;;;19.17;5.93;;;;;;;24.53;43.08;99838.66;5015815;28;20030;-57
2022/10/21 06:03:33;;;;;;;23.83;6.85;;;;;;;24.55;43.16;99849.09;4994957;28;20061;-56
2022/10/21 06:06:04;;;;;;;19.30;5.25;;;;;;;24.50;43.48;99849.16;4996123;28;20037;-56
2022/10/21 06:08:34;;;;;;;23.77;6.88;;;;;;;24.55;43.00;99855.25;4996586;28;20037;-55
2022/10/21 06:11:05;;;;;;;21.75;5.88;;;;;;;24.54;43.31;99847.38;4996057;28;20029;-56
2022/10/21 06:13:33;;;;;;;21.50;6.28;;;;;;;24.52;42.98;99851.75;4995923;28;20018;-55
2022/10/21 06:16:02;;;;;;;22.80;7.18;;;;;;;24.50;43.05;99859.63;4995850;28;20065;-56
2022/10/21 06:18:31;;;;;;;15.82;5.30;;;;;;;24.52;43.01;99851.75;4995959;28;20026;-56
2022/10/21 06:20:59;;;;;;;18.10;6.20;;;;;;;24.47;43.51;99846.53;4995937;28;20030;-56
2022/10/21 06:23:27;;;;;;;24.55;6.43;;;;;;;24.54;43.09;99856.13;4978660;28;20038;-56
2022/10/21 06:25:58;;;;;;;21.00;6.75;;;;;;;24.54;42.94;99852.59;4994347;28;20147;-57
2022/10/21 06:28:28;;;;;;;24.50;6.25;;;;;;;24.45;43.28;99860.56;4996046;28;20121;-57
2022/10/21 06:30:57;;;;;;;22.23;6.90;;;;;;;24.46;43.40;99852.66;4995632;28;20356;-54
2022/10/21 06:33:25;;;;;;;19.95;5.78;;;;;;;24.46;43.09;99852.66;4995537;28;20096;-57
2022/10/21 06:35:54;;;;;;;24.85;6.40;;;;;;;24.51;43.39;99850.00;4995552;28;20031;-56
2022/10/21 06:38:23;;;;;;;20.80;5.72;;;;;;;24.50;43.39;99848.25;4995549;28;20026;-56
2022/10/21 06:40:53;;;;;;;19.70;6.38;;;;;;;24.44;43.24;99854.41;4995470;28;20037;-56
2022/10/21 06:43:21;;;;;;;21.75;5.70;;;;;;;24.49;43.32;99852.66;4995900;28;20509;-51
2022/10/21 06:45:49;;;;;;;18.90;6.10;;;;;;;24.48;43.30;99858.78;4995344;28;20026;-56
2022/10/21 06:48:18;;;;;;;21.50;6.20;;;;;;;24.47;43.21;99867.50;4995376;28;20495;-56
2022/10/21 06:50:47;;;;;;;18.17;5.57;;;;;;;24.42;43.45;99859.69;4995571;28;20038;-57
2022/10/21 06:53:15;;;;;;;17.33;5.47;;;;;;;24.44;43.41;99867.53;4995229;28;20475;-57
2022/10/21 06:55:43;;;;;;;20.20;5.95;;;;;;;24.47;43.51;99869.28;4995032;28;20057;-56
2022/10/21 06:58:12;;;;;;;19.75;6.05;;;;;;;24.47;43.56;99871.91;4994222;28;20424;-56
2022/10/21 07:00:40;;;;;;;20.15;5.38;;;;;;;24.47;43.04;99864.03;4995521;28;20026;-57
2022/10/21 07:03:08;;;;;;;20.25;5.82;;;;;;;24.47;43.33;99870.13;5006978;28;20045;-57
2022/10/21 07:05:36;;;;;;;19.90;6.13;;;;;;;24.42;43.52;99864.94;5014363;28;20033;-57
2022/10/21 07:08:06;;;;;;;19.73;5.65;;;;;;;24.38;43.53;99873.69;5014266;28;20108;-56
2022/10/21 07:10:34;;;;;;;19.80;6.07;;;;;;;24.46;43.27;99875.41;5014735;28;20026;-55
2022/10/21 07:13:03;;;;;;;18.02;6.00;;;;;;;24.45;43.10;99884.16;5014462;28;20448;-56
2022/10/21 07:15:31;;;;;;;17.73;5.75;;;;;;;24.46;43.46;99883.25;5014165;28;20426;-55
2022/10/21 07:18:00;;;;;;;20.05;5.72;;;;;;;24.48;43.40;99892.84;5014714;28;20483;-57
2022/10/21 07:20:28;;;;;;;25.10;6.72;;;;;;;24.48;43.40;99894.63;5014252;28;20026;-58
2022/10/21 07:22:57;;;;;;;18.73;5.55;;;;;;;24.50;43.16;99900.69;5014313;28;20383;-57
2022/10/21 07:25:26;;;;;;;21.05;6.85;;;;;;;24.52;42.89;99889.34;4996966;28;20056;-57
2022/10/21 07:27:54;;;;;;;21.00;5.70;;;;;;;24.50;43.58;99890.22;5014093;28;20036;-54
2022/10/21 07:30:23;;;;;;;21.73;6.43;;;;;;;24.44;43.09;99883.25;4996966;28;20026;-57
2022/10/21 07:32:51;;;;;;;16.92;5.05;;;;;;;24.47;43.22;99890.25;5014047;28;20030;-58
2022/10/21 07:35:20;;;;;;;19.67;4.90;;;;;;;24.43;43.44;99892.88;5014031;28;20034;-58
2022/10/21 07:37:48;;;;;;;18.98;5.85;;;;;;;24.41;43.33;99894.66;5014018;28;20434;-57
2022/10/21 07:40:16;;;;;;;25.90;6.55;;;;;;;24.40;43.48;99906.00;5013899;28;20053;-58
2022/10/21 07:42:45;;;;;;;22.25;6.30;;;;;;;24.47;43.34;99901.59;5013940;28;20030;-57
2022/10/21 07:45:13;;;;;;;17.63;5.13;;;;;;;24.52;42.94;99894.59;5013771;28;20030;-58
2022/10/21 07:47:42;;;;;;;18.65;6.05;;;;;;;24.63;42.88;99912.88;5013965;28;20026;-58
2022/10/21 07:50:11;;;;;;;22.30;6.32;;;;;;;24.66;42.87;99915.44;5013883;28;20541;-58
2022/10/21 07:52:44;;;;;;;20.65;5.80;;;;;;;24.69;42.38;99904.94;5013538;28;20030;-58
2022/10/21 07:55:14;;;;;;;18.90;5.78;;;;;;;24.68;42.83;99905.81;5013783;28;20391;-58
2022/10/21 07:57:43;;;;;;;20.77;6.22;;;;;;;24.71;42.63;99916.34;5014243;28;20050;-58
2022/10/21 08:00:12;;;;;;;18.55;6.28;;;;;;;24.67;42.73;99916.34;5013540;28;20033;-57
2022/10/21 08:02:41;;;;;;;17.73;5.65;;;;;;;24.60;43.02;99910.25;5013170;28;20046;-56
2022/10/21 08:05:10;;;;;;;19.13;5.72;;;;;;;24.66;42.90;99918.06;5013182;28;20030;-57
2022/10/21 08:07:38;;;;;;;16.63;4.97;;;;;;;24.67;42.84;99913.72;5013618;28;20490;-56
2022/10/21 08:10:07;;;;;;;21.13;5.60;;;;;;;24.65;43.02;99921.59;5013712;28;20095;-56
2022/10/21 08:12:36;;;;;;;19.60;6.20;;;;;;;24.67;42.98;99927.69;5013633;28;20022;-54
2022/10/21 08:15:05;;;;;;;16.20;5.50;;;;;;;24.67;43.35;99924.22;5013246;28;20029;-57
2022/10/21 08:17:33;;;;;;;19.20;5.68;;;;;;;24.68;43.14;99918.09;5013111;28;20025;-57
2022/10/21 08:20:02;;;;;;;18.23;5.68;;;;;;;24.65;43.32;99931.22;5013481;28;20041;-54
2022/10/21 08:22:32;;;;;;;23.67;6.30;;;;;;;24.71;43.28;99916.34;5013733;28;20474;-56
2022/10/21 08:25:00;;;;;;;19.45;6.13;;;;;;;24.68;43.39;99911.06;5012997;28;20041;-56
2022/10/21 08:27:29;;;;;;;17.55;5.05;;;;;;;24.72;43.07;99912.84;5013163;28;20060;-55
2022/10/21 08:29:57;;;;;;;17.63;5.85;;;;;;;24.73;43.13;99914.56;5013384;28;20080;-55
2022/10/21 08:32:26;;;;;;;20.58;6.53;;;;;;;24.80;43.05;99915.41;5013200;28;20105;-56
2022/10/21 08:34:54;;;;;;;19.67;5.18;;;;;;;24.80;43.09;99917.16;5013071;28;20026;-51
2022/10/21 08:37:23;;;;;;;14.23;5.50;;;;;;;24.79;43.25;99912.81;5013149;28;20029;-56
2022/10/21 08:39:51;;;;;;;20.38;5.18;;;;;;;24.78;43.09;99906.66;5013092;28;20421;-57
2022/10/21 08:42:19;;;;;;;16.00;5.22;;;;;;;24.73;43.37;99909.31;5013001;28;20364;-57
2022/10/21 08:45:00;;;;;;;18.55;5.80;;;;;;;24.77;43.55;99912.78;4995766;28;20025;-57
2022/10/21 08:47:44;;;;;;;18.23;5.38;;;;;;;24.77;43.60;99910.16;4995709;28;20030;-57
2022/10/21 08:50:13;;;;;;;13.45;4.72;;;;;;;24.81;43.27;99919.75;4995925;28;20065;-56
2022/10/21 08:52:48;;;;;;;17.40;4.82;;;;;;;24.77;43.36;99912.78;4995827;28;20438;-55
2022/10/21 08:55:22;;;;;;;17.83;5.95;;;;;;;24.82;43.46;99907.53;5013193;28;20084;-56
2022/10/21 08:57:53;;;;;;;16.63;5.18;;;;;;;24.86;43.42;99911.84;4995765;28;20033;-57
2022/10/21 09:00:24;;;;;;;17.63;6.15;;;;;;;24.83;43.38;99898.75;5012803;28;20034;-56
2022/10/21 09:03:15;;;;;;;18.42;5.22;;;;;;;24.87;43.42;99910.97;4995495;28;20057;-57
2022/10/21 09:05:44;;;;;;;17.73;4.93;;;;;;;24.93;43.10;99910.06;4987724;28;20042;-58
2022/10/21 09:08:33;;;;;;;16.58;5.18;;;;;;;24.85;43.73;99912.75;5012779;28;20118;-57
2022/10/21 09:11:24;;;;;;;14.52;5.15;;;;;;;24.90;43.17;99918.84;4987089;28;20108;-57
2022/10/21 09:14:01;;;;;;;18.38;5.88;;;;;;;24.91;43.17;99911.81;5003883;28;20130;-57
2022/10/21 09:17:04;;;;;;;14.68;5.20;;;;;;;24.93;43.29;99905.69;5012828;28;20172;-56
2022/10/21 09:20:02;;;;;;;20.55;4.95;;;;;;;24.97;43.33;99902.16;5016588;28;20032;-56
2022/10/21 09:22:42;;;;;;;19.35;5.63;;;;;;;24.95;43.31;99906.56;5006024;28;20104;-57
2022/10/21 09:25:33;;;;;;;16.30;5.07;;;;;;;24.96;43.34;99920.53;4999161;28;20088;-58
2022/10/21 09:28:11;;;;;;;15.88;5.13;;;;;;;24.96;43.34;99910.03;5007027;28;20088;-58
2022/10/21 09:30:41;;;;;;;17.23;5.65;;;;;;;24.96;43.25;99912.66;4999450;28;20029;-58
2022/10/21 09:33:30;;;;;;;18.65;5.85;;;;;;;24.92;43.52;99916.19;5016280;28;20026;-58
2022/10/21 09:36:07;;;;;;;18.70;5.25;;;;;;;24.92;43.61;99911.81;5016332;28;20110;-57
2022/10/21 09:38:48;;;;;;;17.60;5.50;;;;;;;24.95;43.56;99917.06;5016468;28;20105;-57
2022/10/21 09:41:21;;;;;;;18.63;5.03;;;;;;;24.98;43.72;99932.78;5016512;28;20029;-58
2022/10/21 09:43:50;;;;;;;18.40;5.20;;;;;;;25.02;43.29;99931.84;5016359;28;20148;-57
2022/10/21 09:46:19;;;;;;;15.45;5.13;;;;;;;25.06;43.43;99926.59;4998564;28;20048;-58
2022/10/21 09:48:51;;;;;;;18.33;5.32;;;;;;;25.04;43.27;99926.59;5016288;28;20382;-54
2022/10/21 09:51:41;;;;;;;15.75;4.72;;;;;;;25.01;43.39;99919.59;5015986;28;20080;-58
2022/10/21 09:54:17;;;;;;;16.02;4.97;;;;;;;25.06;43.52;99926.59;5016046;28;20034;-58
2022/10/21 09:56:50;;;;;;;18.90;5.13;;;;;;;25.00;43.50;99917.00;5016028;28;20026;-56
2022/10/21 09:59:21;;;;;;;18.75;5.72;;;;;;;24.96;43.30;99921.41;5015710;28;20435;-58
2022/10/21 10:01:50;;;;;;;18.38;6.90;;;;;;;25.00;43.39;99920.50;5016075;28;20049;-57
2022/10/21 10:04:38;;;;;;;14.13;4.80;;;;;;;25.01;43.29;99921.38;4999120;28;20022;-58
2022/10/21 10:07:25;;;;;;;15.40;4.75;;;;;;;25.02;43.43;99921.34;5015777;28;20121;-55
2022/10/21 10:09:54;;;;;;;15.85;4.68;;;;;;;25.03;43.43;99917.84;5007332;28;20034;-54
2022/10/21 10:12:25;;;;;;;18.48;5.53;;;;;;;25.06;43.41;99918.72;5015670;28;20493;-56
2022/10/21 10:14:54;;;;;;;16.83;4.72;;;;;;;25.05;43.53;99909.97;5015529;28;20026;-55
2022/10/21 10:17:42;;;;;;;17.00;4.68;;;;;;;25.07;43.63;99918.69;5015422;28;20504;-56
2022/10/21 10:20:27;;;;;;;18.17;4.65;;;;;;;25.06;43.48;99905.59;4998468;28;20037;-56
2022/10/21 10:22:59;;;;;;;15.65;4.60;;;;;;;25.11;43.39;99924.81;5015494;28;20100;-56
2022/10/21 10:25:31;;;;;;;19.10;5.47;;;;;;;25.10;43.39;99918.66;5015329;28;20033;-57
2022/10/21 10:28:04;;;;;;;15.20;5.18;;;;;;;25.12;43.63;99910.78;4997334;28;20025;-57
2022/10/21 10:30:53;;;;;;;19.08;5.50;;;;;;;25.03;43.60;99917.84;5015288;28;20034;-56
2022/10/21 10:33:28;;;;;;;17.88;5.03;;;;;;;25.11;43.66;99922.19;4990734;28;20144;-56
2022/10/21 10:35:57;;;;;;;;;;;;;;;25.12;43.40;99922.16;5015524;28;20379;-56
2022/10/21 10:38:30;;;;;;;16.00;4.55;;;;;;;25.13;43.34;99918.66;5015305;28;19913;-57
2022/10/21 10:41:10;;;;;;;15.30;5.05;;;;;;;25.14;43.57;99925.63;5015099;28;20037;-57
2022/10/21 10:43:53;;;;;;;20.95;5.03;;;;;;;25.13;43.42;99921.25;4997632;28;20025;-57
2022/10/21 10:46:26;;;;;;;21.13;6.03;;;;;;;25.13;43.52;99925.66;5015041;28;20121;-57
2022/10/21 10:48:55;;;;;;;16.17;5.18;;;;;;;25.15;43.74;99916.03;5014871;28;20096;-56
2022/10/21 10:51:27;;;;;;;18.40;5.50;;;;;;;25.17;43.67;99929.97;5015103;28;20030;-57
2022/10/21 10:54:17;;;;;;;18.65;4.53;;;;;;;25.09;43.71;99921.31;5014910;28;20109;-56
2022/10/21 10:57:05;;;;;;;17.05;5.95;;;;;;;25.15;43.41;99934.41;5005667;28;20038;-57
2022/10/21 10:59:45;;;;;;;21.65;5.65;;;;;;;25.14;43.63;99927.41;5007432;28;20117;-57
2022/10/21 11:02:17;;;;;;;16.40;5.03;;;;;;;25.17;43.62;99948.34;4997181;28;20049;-57
2022/10/21 11:05:02;;;;;;;18.20;5.15;;;;;;;25.09;43.52;99924.78;4981261;28;20557;-54
2022/10/21 11:07:35;;;;;;;16.52;5.88;;;;;;;25.08;43.62;99932.69;5014775;28;20030;-56
2022/10/21 11:10:24;;;;;;;16.60;5.38;;;;;;;25.13;43.56;99938.78;4997498;28;20034;-57
2022/10/21 11:12:51;;;;;;;12.75;4.50;;;;;;;25.17;43.46;99940.47;4996987;28;20030;-54
2022/10/21 11:15:25;;;;;;;23.80;6.20;;;;;;;25.14;43.55;99930.03;5014648;28;20025;-58
2022/10/21 11:18:23;;;;;;;18.70;5.35;;;;;;;25.13;43.80;99938.78;4997016;28;20033;-52
2022/10/21 11:20:59;;;;;;;17.88;5.35;;;;;;;25.17;43.61;99930.88;4996777;28;20109;-56
2022/10/21 11:23:47;;;;;;;19.55;5.88;;;;;;;25.17;43.52;99924.72;5014864;28;20398;-57
2022/10/21 11:26:28;;;;;;;18.25;5.22;;;;;;;25.12;43.40;99927.41;4989309;28;20042;-57
2022/10/21 11:29:11;;;;;;;17.45;4.95;;;;;;;25.18;43.57;99916.84;5014215;28;20482;-58
2022/10/21 11:31:51;;;;;;;19.48;5.93;;;;;;;25.18;43.46;99924.72;5013920;28;20029;-58
2022/10/21 11:34:31;;;;;;;21.85;5.65;;;;;;;25.19;43.55;99928.22;5014408;28;20032;-57
2022/10/21 11:37:21;;;;;;;21.50;6.95;;;;;;;25.15;43.53;99919.50;5014236;28;20085;-58
2022/10/21 11:39:58;;;;;;;18.50;6.05;;;;;;;25.21;43.42;99934.31;5013454;28;20026;-58
2022/10/21 11:42:37;;;;;;;16.02;4.88;;;;;;;25.20;43.61;99945.72;5014490;28;20467;-58
2022/10/21 11:45:36;;;;;;;16.58;5.07;;;;;;;25.22;43.45;99936.06;4996207;28;20054;-58
2022/10/21 11:48:24;;;;;;;19.98;5.13;;;;;;;25.26;43.39;99927.28;5013679;28;20378;-57
2022/10/21 11:51:13;;;;;;;15.68;5.07;;;;;;;25.27;43.38;99933.41;5014106;28;20470;-58
2022/10/21 11:53:57;;;;;;;21.67;5.55;;;;;;;25.24;43.51;99925.53;5003289;28;20052;-58
2022/10/21 11:56:47;;;;;;;19.88;5.97;;;;;;;25.26;43.37;99922.03;5013710;28;20072;-54